createdAt,value
2017-11-25T00:01:24.193Z,98380.08
2017-11-25T00:03:52.463Z,98377.46
2017-11-25T00:06:20.730Z,98369.92
2017-11-25T00:08:49.006Z,98371.88
2017-11-25T00:11:17.391Z,98361.32
2017-11-25T00:13:45.659Z,98361.08
2017-11-25T00:16:13.957Z,98350.90
2017-11-25T00:18:42.232Z,98339.18
2017-11-25T00:21:10.530Z,98344.12
2017-11-25T00:23:38.847Z,98342.30
2017-11-25T00:26:07.155Z,98332.78
2017-11-25T00:28:35.442Z,98339.34
2017-11-25T00:31:04.715Z,98326.30
2017-11-25T00:33:33.000Z,98329.81
2017-11-25T00:36:01.261Z,98325.47
2017-11-25T00:38:29.658Z,98329.36
2017-11-25T00:40:57.934Z,98329.23
2017-11-25T00:43:26.825Z,98326.98
2017-11-25T00:45:55.121Z,98328.33
2017-11-25T00:48:23.402Z,98325.95
2017-11-25T00:50:51.677Z,98322.03
2017-11-25T00:53:19.998Z,98307.20
2017-11-25T00:55:48.275Z,98302.67
2017-11-25T00:58:16.529Z,98308.41
2017-11-25T01:00:44.866Z,98306.88
2017-11-25T01:03:13.181Z,98301.37
2017-11-25T01:05:42.356Z,98305.55
2017-11-25T01:08:10.618Z,98296.95
2017-11-25T01:10:38.919Z,98292.72
2017-11-25T01:13:07.198Z,98283.38
2017-11-25T01:15:35.492Z,98287.62
2017-11-25T01:18:03.763Z,98287.25
2017-11-25T01:20:32.082Z,98294.18
2017-11-25T01:23:00.324Z,98288.94
2017-11-25T01:25:28.673Z,98287.86
2017-11-25T01:27:56.932Z,98285.87
2017-11-25T01:30:25.211Z,98291.51
2017-11-25T01:32:53.503Z,98285.98
2017-11-25T01:35:21.760Z,98283.89
2017-11-25T01:37:50.035Z,98287.94
2017-11-25T01:40:18.311Z,98293.73
2017-11-25T01:42:46.588Z,98287.67
2017-11-25T01:45:14.870Z,98297.33
2017-11-25T01:47:43.153Z,98284.31
2017-11-25T01:50:11.417Z,98288.95
2017-11-25T01:52:39.684Z,98281.48
2017-11-25T01:55:07.971Z,98286.64
2017-11-25T01:57:36.321Z,98277.73
2017-11-25T02:00:05.265Z,98243.72
2017-11-25T02:02:33.581Z,98241.61
2017-11-25T02:05:01.878Z,98259.33
2017-11-25T02:07:30.141Z,98264.72
2017-11-25T02:09:58.753Z,98255.99
2017-11-25T02:12:26.995Z,98255.20
2017-11-25T02:14:55.329Z,98255.20
2017-11-25T02:17:23.600Z,98258.95
2017-11-25T02:19:51.850Z,98257.84
2017-11-25T02:22:20.138Z,98254.20
2017-11-25T02:24:48.393Z,98265.91
2017-11-25T02:27:16.737Z,98252.92
2017-11-25T02:29:45.022Z,98249.09
2017-11-25T02:32:13.307Z,98243.98
2017-11-25T02:34:41.585Z,98240.34
2017-11-25T02:37:09.975Z,98245.75
2017-11-25T02:39:39.183Z,98244.41
2017-11-25T02:42:07.630Z,98243.19
2017-11-25T02:44:35.903Z,98239.25
2017-11-25T02:47:04.470Z,98240.89
2017-11-25T02:49:32.805Z,98244.70
2017-11-25T02:52:01.068Z,98238.87
2017-11-25T02:54:29.358Z,98250.39
2017-11-25T02:56:57.704Z,98245.08
2017-11-25T02:59:26.018Z,98237.52
2017-11-25T03:01:54.295Z,98243.05
2017-11-25T03:04:22.561Z,98224.99
2017-11-25T03:06:50.867Z,98242.66
2017-11-25T03:09:19.133Z,98237.30
2017-11-25T03:11:47.403Z,98242.14
2017-11-25T03:14:15.664Z,98246.05
2017-11-25T03:16:43.968Z,98234.72
2017-11-25T03:19:12.242Z,98229.31
2017-11-25T03:21:40.571Z,98222.78
2017-11-25T03:24:08.838Z,98226.14
2017-11-25T03:26:37.098Z,98226.34
2017-11-25T03:29:05.385Z,98223.13
2017-11-25T03:31:33.650Z,98220.88
2017-11-25T03:34:01.972Z,98224.42
2017-11-25T03:36:30.641Z,98215.00
2017-11-25T03:38:58.938Z,98213.09
2017-11-25T03:41:27.184Z,98201.67
2017-11-25T03:43:55.466Z,98198.55
2017-11-25T03:46:23.756Z,98193.44
2017-11-25T03:48:52.294Z,98179.95
2017-11-25T03:51:20.551Z,98182.19
2017-11-25T03:53:48.823Z,98166.14
2017-11-25T03:56:17.110Z,98175.54
2017-11-25T03:58:45.388Z,98166.82
2017-11-25T04:01:13.673Z,98169.55
2017-11-25T04:03:41.944Z,98167.59
2017-11-25T04:06:10.244Z,98165.98
2017-11-25T04:08:38.511Z,98156.38
2017-11-25T04:11:06.785Z,98156.66
2017-11-25T04:13:35.056Z,98158.05
2017-11-25T04:16:03.337Z,98154.19
2017-11-25T04:18:31.768Z,98159.25
2017-11-25T04:21:00.044Z,98156.17
2017-11-25T04:23:28.351Z,98152.39
2017-11-25T04:25:56.612Z,98151.91
2017-11-25T04:28:25.177Z,98147.38
2017-11-25T04:30:53.484Z,98151.16
2017-11-25T04:33:21.803Z,98147.84
2017-11-25T04:35:50.093Z,98155.72
2017-11-25T04:38:18.367Z,98139.19
2017-11-25T04:40:46.689Z,98147.38
2017-11-25T04:43:14.981Z,98141.59
2017-11-25T04:45:43.532Z,98148.16
2017-11-25T04:48:11.804Z,98147.83
2017-11-25T04:50:40.150Z,98148.81
2017-11-25T04:53:08.464Z,98144.68
2017-11-25T04:55:36.732Z,98140.02
2017-11-25T04:58:05.129Z,98130.38
2017-11-25T05:00:33.445Z,98142.17
2017-11-25T05:03:01.733Z,98139.42
2017-11-25T05:05:30.054Z,98146.50
2017-11-25T05:07:58.341Z,98140.33
2017-11-25T05:10:26.603Z,98141.16
2017-11-25T05:12:54.858Z,98138.36
2017-11-25T05:15:23.129Z,98121.23
2017-11-25T05:17:51.415Z,98132.16
2017-11-25T05:20:19.669Z,98131.30
2017-11-25T05:22:47.976Z,98117.53
2017-11-25T05:25:16.258Z,98120.81
2017-11-25T05:27:44.540Z,98125.95
2017-11-25T05:30:12.817Z,98122.02
2017-11-25T05:32:41.129Z,98123.02
2017-11-25T05:35:09.408Z,98115.71
2017-11-25T05:37:37.668Z,98111.23
2017-11-25T05:40:05.949Z,98111.37
2017-11-25T05:42:34.220Z,98116.28
2017-11-25T05:45:02.517Z,98118.30
2017-11-25T05:47:30.860Z,98118.30
2017-11-25T05:49:59.124Z,98112.28
2017-11-25T05:52:27.439Z,98118.28
2017-11-25T05:54:55.811Z,98119.31
2017-11-25T05:57:24.069Z,98123.61
2017-11-25T05:59:52.414Z,98127.48
2017-11-25T06:02:20.718Z,98137.02
2017-11-25T06:04:48.973Z,98140.10
2017-11-25T06:07:17.261Z,98151.16
2017-11-25T06:09:45.618Z,98152.61
2017-11-25T06:12:13.901Z,98156.60
2017-11-25T06:14:42.163Z,98163.38
2017-11-25T06:17:10.445Z,98168.16
2017-11-25T06:19:39.749Z,98177.11
2017-11-25T06:22:08.161Z,98180.66
2017-11-25T06:24:36.471Z,98186.64
2017-11-25T06:27:05.342Z,98183.78
2017-11-25T06:29:33.632Z,98193.77
2017-11-25T06:32:01.916Z,98204.78
2017-11-25T06:34:30.530Z,98209.69
2017-11-25T06:36:58.823Z,98206.66
2017-11-25T06:39:27.119Z,98209.66
2017-11-25T06:41:55.395Z,98215.98
2017-11-25T06:44:23.697Z,98212.71
2017-11-25T06:46:51.969Z,98213.66
2017-11-25T06:49:20.311Z,98213.32
2017-11-25T06:51:48.604Z,98215.67
2017-11-25T06:54:16.880Z,98222.68
2017-11-25T06:56:45.186Z,98223.66
2017-11-25T06:59:13.462Z,98223.03
2017-11-25T07:01:42.300Z,98224.98
2017-11-25T07:04:10.589Z,98223.64
2017-11-25T07:06:38.890Z,98223.88
2017-11-25T07:09:07.183Z,98223.91
2017-11-25T07:11:35.473Z,98218.52
2017-11-25T07:14:03.761Z,98222.27
2017-11-25T07:16:32.043Z,98226.73
2017-11-25T07:19:00.346Z,98216.53
2017-11-25T07:21:28.600Z,98222.36
2017-11-25T07:23:56.869Z,98229.34
2017-11-25T07:26:25.163Z,98224.20
2017-11-25T07:28:53.435Z,98224.53
2017-11-25T07:31:21.707Z,98235.95
2017-11-25T07:33:49.988Z,98234.84
2017-11-25T07:36:18.246Z,98234.02
2017-11-25T07:38:46.560Z,98233.51
2017-11-25T07:41:14.915Z,98228.44
2017-11-25T07:43:43.196Z,98234.88
2017-11-25T07:46:11.468Z,98237.08
2017-11-25T07:48:39.749Z,98228.55
2017-11-25T07:51:08.017Z,98233.89
2017-11-25T07:53:36.313Z,98232.19
2017-11-25T07:56:05.039Z,98235.53
2017-11-25T07:58:33.332Z,98235.55
2017-11-25T08:01:01.599Z,98233.69
2017-11-25T08:03:29.857Z,98245.23
2017-11-25T08:05:58.149Z,98231.56
2017-11-25T08:08:26.434Z,98158.40
2017-11-25T08:10:54.738Z,98249.51
2017-11-25T08:13:22.988Z,98263.21
2017-11-25T08:15:51.396Z,98259.92
2017-11-25T08:18:19.692Z,98265.33
2017-11-25T08:20:47.949Z,98260.78
2017-11-25T08:23:16.223Z,98256.70
2017-11-25T08:25:44.528Z,98270.80
2017-11-25T08:28:12.786Z,98258.83
2017-11-25T08:30:41.044Z,98255.00
2017-11-25T08:33:09.625Z,98261.86
2017-11-25T08:35:37.864Z,98260.84
2017-11-25T08:38:06.173Z,98260.44
2017-11-25T08:40:34.449Z,98269.53
2017-11-25T08:43:02.742Z,98266.38
2017-11-25T08:45:31.013Z,98278.63
2017-11-25T08:47:59.470Z,98286.14
2017-11-25T08:50:27.694Z,98286.94
2017-11-25T08:52:56.004Z,98272.61
2017-11-25T08:55:24.280Z,98293.87
2017-11-25T08:57:52.602Z,98289.30
2017-11-25T09:00:20.874Z,98276.77
2017-11-25T09:02:49.143Z,98282.83
2017-11-25T09:05:17.455Z,98287.82
2017-11-25T09:07:46.104Z,98281.52
2017-11-25T09:10:14.471Z,98278.87
2017-11-25T09:12:42.726Z,98281.15
2017-11-25T09:15:11.283Z,98291.05
2017-11-25T09:17:39.565Z,98288.02
2017-11-25T09:20:07.846Z,98291.84
2017-11-25T09:22:36.143Z,98275.27
2017-11-25T09:25:04.960Z,98284.19
2017-11-25T09:27:33.265Z,98292.09
2017-11-25T09:30:01.508Z,98291.01
2017-11-25T09:32:29.789Z,98294.84
2017-11-25T09:34:58.086Z,98298.39
2017-11-25T09:37:26.463Z,98295.91
2017-11-25T09:39:54.656Z,98313.67
2017-11-25T09:42:23.013Z,98309.72
2017-11-25T09:44:51.353Z,98307.89
2017-11-25T09:47:20.423Z,98303.69
2017-11-25T09:49:48.698Z,98327.91
2017-11-25T09:52:16.997Z,98320.66
2017-11-25T09:54:45.265Z,98313.55
2017-11-25T09:57:13.577Z,98306.69
2017-11-25T09:59:41.890Z,98294.05
2017-11-25T10:02:10.135Z,98296.80
2017-11-25T10:04:38.453Z,98285.34
2017-11-25T10:07:06.747Z,98278.03
2017-11-25T10:09:35.047Z,98291.08
2017-11-25T10:12:03.400Z,98298.33
2017-11-25T10:14:31.691Z,98298.58
2017-11-25T10:17:00.035Z,98301.89
2017-11-25T10:19:29.500Z,98308.72
2017-11-25T10:21:57.817Z,98321.75
2017-11-25T10:24:26.089Z,98329.41
2017-11-25T10:26:54.376Z,98324.94
2017-11-25T10:29:22.631Z,98334.44
2017-11-25T10:31:50.904Z,98339.44
2017-11-25T10:34:19.995Z,98334.17
2017-11-25T10:36:48.262Z,98349.97
2017-11-25T10:39:16.620Z,98343.50
2017-11-25T10:41:44.926Z,98339.27
2017-11-25T10:44:13.231Z,98341.39
2017-11-25T10:46:41.525Z,98335.47
2017-11-25T10:49:09.805Z,98326.25
2017-11-25T10:51:38.053Z,98318.86
2017-11-25T10:54:06.383Z,98336.05
2017-11-25T10:56:34.658Z,98335.64
2017-11-25T10:59:03.029Z,98338.00
2017-11-25T11:01:31.329Z,98337.06
2017-11-25T11:03:59.870Z,98349.95
2017-11-25T11:06:28.148Z,98363.65
2017-11-25T11:08:56.447Z,98361.42
2017-11-25T11:11:24.728Z,98368.24
2017-11-25T11:13:53.020Z,98371.52
2017-11-25T11:16:21.301Z,98390.45
2017-11-25T11:18:49.584Z,98407.44
2017-11-25T11:21:17.857Z,98414.73
2017-11-25T11:23:46.180Z,98406.08
2017-11-25T11:26:14.468Z,98402.36
2017-11-25T11:28:42.759Z,98407.23
2017-11-25T11:31:11.008Z,98418.52
2017-11-25T11:33:39.893Z,98405.89
2017-11-25T11:36:08.152Z,98408.52
2017-11-25T11:38:40.406Z,98411.05
2017-11-25T11:41:08.661Z,98417.09
2017-11-25T11:43:37.000Z,98415.10
2017-11-25T11:46:05.720Z,98424.44
2017-11-25T11:48:34.067Z,98412.23
2017-11-25T11:51:02.286Z,98415.53
2017-11-25T11:53:30.564Z,98428.30
2017-11-25T11:55:58.915Z,98425.80
2017-11-25T11:58:27.190Z,98435.80
2017-11-25T12:00:55.497Z,98426.17
2017-11-25T12:03:23.768Z,98439.88
2017-11-25T12:05:52.261Z,98451.58
2017-11-25T12:08:20.542Z,98442.25
2017-11-25T12:10:48.864Z,98445.92
2017-11-25T12:13:17.163Z,98453.44
2017-11-25T12:15:45.499Z,98454.09
2017-11-25T12:18:13.757Z,98452.98
2017-11-25T12:20:42.033Z,98442.15
2017-11-25T12:23:10.324Z,98446.77
2017-11-25T12:25:38.657Z,98438.84
2017-11-25T12:28:06.977Z,98447.97
2017-11-25T12:30:36.245Z,98449.13
2017-11-25T12:33:04.608Z,98461.11
2017-11-25T12:35:32.937Z,98461.02
2017-11-25T12:38:01.304Z,98461.37
2017-11-25T12:40:29.641Z,98458.48
2017-11-25T12:42:58.046Z,98455.00
2017-11-25T12:45:26.380Z,98462.44
2017-11-25T12:47:54.672Z,98459.55
2017-11-25T12:50:22.927Z,98466.03
2017-11-25T12:52:51.219Z,98464.20
2017-11-25T12:55:19.667Z,98463.42
2017-11-25T12:57:47.973Z,98455.00
2017-11-25T13:00:16.256Z,98460.84
2017-11-25T13:02:44.547Z,98454.95
2017-11-25T13:05:12.906Z,98458.05
2017-11-25T13:07:41.230Z,98440.51
2017-11-25T13:10:09.518Z,98465.48
2017-11-25T13:12:37.769Z,98474.34
2017-11-25T13:15:06.071Z,98472.25
2017-11-25T13:17:34.337Z,98481.06
2017-11-25T13:20:02.638Z,98475.79
2017-11-25T13:22:30.979Z,98481.73
2017-11-25T13:24:59.582Z,98481.98
2017-11-25T13:27:27.809Z,98484.76
2017-11-25T13:29:56.120Z,98492.81
2017-11-25T13:32:24.359Z,98500.17
2017-11-25T13:34:52.694Z,98496.45
2017-11-25T13:37:21.587Z,98528.89
2017-11-25T13:39:49.840Z,98532.48
2017-11-25T13:42:18.084Z,98520.63
2017-11-25T13:44:46.462Z,98543.17
2017-11-25T13:47:14.757Z,98543.48
2017-11-25T13:49:43.039Z,98548.65
2017-11-25T13:52:11.339Z,98553.67
2017-11-25T13:54:39.596Z,98558.02
2017-11-25T13:57:07.909Z,98573.01
2017-11-25T13:59:36.156Z,98577.78
2017-11-25T14:02:04.461Z,98570.91
2017-11-25T14:04:32.781Z,98593.58
2017-11-25T14:07:01.107Z,98602.09
2017-11-25T14:09:29.388Z,98611.45
2017-11-25T14:11:57.712Z,98610.61
2017-11-25T14:14:25.956Z,98628.03
2017-11-25T14:16:54.282Z,98624.23
2017-11-25T14:19:22.558Z,98624.45
2017-11-25T14:21:50.861Z,98626.80
2017-11-25T14:24:19.144Z,98628.53
2017-11-25T14:26:47.400Z,98620.16
2017-11-25T14:29:15.684Z,98625.58
2017-11-25T14:31:43.973Z,98631.67
2017-11-25T14:34:12.310Z,98636.53
2017-11-25T14:36:40.616Z,98645.41
2017-11-25T14:39:08.875Z,98648.34
2017-11-25T14:41:37.161Z,98643.14
2017-11-25T14:44:05.860Z,98660.95
2017-11-25T14:46:34.144Z,98661.92
2017-11-25T14:49:02.482Z,98663.17
2017-11-25T14:51:30.820Z,98668.73
2017-11-25T14:53:59.079Z,98649.59
2017-11-25T14:56:27.377Z,98681.22
2017-11-25T14:58:56.540Z,98686.62
2017-11-25T15:01:24.828Z,98684.59
2017-11-25T15:03:53.226Z,98698.31
2017-11-25T15:06:21.467Z,98705.52
2017-11-25T15:08:49.819Z,98702.61
2017-11-25T15:11:18.438Z,98705.97
2017-11-25T15:13:46.714Z,98713.98
2017-11-25T15:16:14.977Z,98714.85
2017-11-25T15:18:43.268Z,98695.45
2017-11-25T15:21:12.844Z,98729.75
2017-11-25T15:23:41.111Z,98729.78
2017-11-25T15:26:09.384Z,98734.16
2017-11-25T15:28:37.646Z,98737.14
2017-11-25T15:31:05.932Z,98746.88
2017-11-25T15:33:34.199Z,98749.94
2017-11-25T15:36:02.666Z,98754.20
2017-11-25T15:38:31.003Z,98764.93
2017-11-25T15:40:59.267Z,98771.16
2017-11-25T15:43:27.517Z,98780.95
2017-11-25T15:45:55.799Z,98784.61
2017-11-25T15:48:24.820Z,98767.59
2017-11-25T15:50:53.069Z,98789.94
2017-11-25T15:53:21.337Z,98804.57
2017-11-25T15:55:50.448Z,98810.82
2017-11-25T15:58:18.722Z,98815.62
2017-11-25T16:00:47.020Z,98828.78
2017-11-25T16:03:15.341Z,98831.11
2017-11-25T16:05:43.614Z,98837.14
2017-11-25T16:08:12.017Z,98834.41
2017-11-25T16:10:40.343Z,98822.97
2017-11-25T16:13:16.416Z,98840.58
2017-11-25T16:15:45.193Z,98835.73
2017-11-25T16:18:13.516Z,98841.83
2017-11-25T16:20:41.785Z,98825.66
2017-11-25T16:23:10.088Z,98840.74
2017-11-25T16:25:38.346Z,98847.66
2017-11-25T16:28:06.641Z,98855.49
2017-11-25T16:30:34.898Z,98852.54
2017-11-25T16:33:04.129Z,98845.39
2017-11-25T16:35:33.345Z,98861.75
2017-11-25T16:38:01.661Z,98876.52
2017-11-25T16:40:29.909Z,98879.33
2017-11-25T16:42:58.161Z,98879.17
2017-11-25T16:45:26.472Z,98872.37
2017-11-25T16:47:54.780Z,98870.25
2017-11-25T16:50:23.013Z,98883.02
2017-11-25T16:52:51.309Z,98891.77
2017-11-25T16:55:19.596Z,98887.12
2017-11-25T16:57:47.961Z,98888.94
2017-11-25T17:00:16.234Z,98895.08
2017-11-25T17:02:44.516Z,98902.36
2017-11-25T17:05:13.617Z,98894.38
2017-11-25T17:07:41.915Z,98903.69
2017-11-25T17:10:10.351Z,98906.80
2017-11-25T17:12:38.640Z,98908.77
2017-11-25T17:15:06.917Z,98908.98
2017-11-25T17:17:35.190Z,98907.00
2017-11-25T17:20:03.481Z,98921.38
2017-11-25T17:22:31.943Z,98911.67
2017-11-25T17:25:00.236Z,98928.13
2017-11-25T17:27:28.577Z,98929.58
2017-11-25T17:29:59.040Z,98929.95
2017-11-25T17:32:27.303Z,98934.28
2017-11-25T17:34:55.589Z,98933.13
2017-11-25T17:37:23.854Z,98935.55
2017-11-25T17:39:52.234Z,98938.95
2017-11-25T17:42:20.511Z,98940.97
2017-11-25T17:44:48.765Z,98947.93
2017-11-25T17:47:17.040Z,98948.58
2017-11-25T17:49:45.302Z,98946.70
2017-11-25T17:52:13.610Z,98943.66
2017-11-25T17:54:42.043Z,98960.67
2017-11-25T17:57:10.276Z,98965.77
2017-11-25T17:59:38.675Z,98971.15
2017-11-25T18:02:06.957Z,98969.41
2017-11-25T18:04:35.217Z,98972.23
2017-11-25T18:07:03.498Z,98977.40
2017-11-25T18:09:31.750Z,98979.83
2017-11-25T18:12:00.096Z,98982.45
2017-11-25T18:14:28.422Z,98988.73
2017-11-25T18:16:56.677Z,98991.76
2017-11-25T18:19:24.961Z,98982.98
2017-11-25T18:21:53.438Z,98999.69
2017-11-25T18:24:21.680Z,99006.98
2017-11-25T18:26:50.021Z,99000.67
2017-11-25T18:29:18.349Z,99017.70
2017-11-25T18:31:46.645Z,99026.05
2017-11-25T18:34:14.969Z,99026.28
2017-11-25T18:36:43.228Z,99039.38
2017-11-25T18:39:11.493Z,99038.31
2017-11-25T18:41:39.804Z,99046.62
2017-11-25T18:44:08.054Z,99046.45
2017-11-25T18:46:36.345Z,99049.35
2017-11-25T18:49:05.390Z,99044.28
2017-11-25T18:51:33.678Z,99058.45
2017-11-25T18:54:01.940Z,99056.47
2017-11-25T18:56:30.219Z,99071.69
2017-11-25T18:58:58.533Z,99067.07
2017-11-25T19:01:26.868Z,99072.27
2017-11-25T19:03:55.124Z,99072.94
2017-11-25T19:06:23.436Z,99065.66
2017-11-25T19:08:51.712Z,99071.47
2017-11-25T19:11:19.998Z,99086.11
2017-11-25T19:13:48.305Z,99089.34
2017-11-25T19:16:16.556Z,99092.17
2017-11-25T19:18:44.930Z,99105.17
2017-11-25T19:21:13.184Z,99107.99
2017-11-25T19:23:41.496Z,99106.08
2017-11-25T19:26:09.762Z,99110.75
2017-11-25T19:28:38.070Z,99124.37
2017-11-25T19:31:06.311Z,99126.03
2017-11-25T19:33:34.593Z,99125.36
2017-11-25T19:36:02.869Z,99127.80
2017-11-25T19:38:31.145Z,99131.06
2017-11-25T19:40:59.457Z,99129.65
2017-11-25T19:43:27.720Z,99128.84
2017-11-25T19:45:56.016Z,99141.23
2017-11-25T19:48:24.378Z,99142.70
2017-11-25T19:50:52.707Z,99149.95
2017-11-25T19:53:20.963Z,99145.33
2017-11-25T19:55:49.459Z,99144.12
2017-11-25T19:58:17.709Z,99142.72
2017-11-25T20:00:46.011Z,99144.87
2017-11-25T20:03:14.506Z,99148.50
2017-11-25T20:05:42.786Z,99149.44
2017-11-25T20:08:11.066Z,99159.31
2017-11-25T20:10:39.361Z,99154.53
2017-11-25T20:13:07.625Z,99149.45
2017-11-25T20:15:35.886Z,99163.77
2017-11-25T20:18:04.872Z,99169.80
2017-11-25T20:20:33.140Z,99171.91
2017-11-25T20:23:01.436Z,99182.67
2017-11-25T20:25:29.694Z,99180.98
2017-11-25T20:27:57.973Z,99180.13
2017-11-25T20:30:26.226Z,99186.22
2017-11-25T20:32:54.524Z,99183.94
2017-11-25T20:35:22.808Z,99191.92
2017-11-25T20:37:51.085Z,99208.69
2017-11-25T20:40:19.386Z,99198.36
2017-11-25T20:42:48.124Z,99204.75
2017-11-25T20:45:16.393Z,99206.75
2017-11-25T20:47:44.698Z,99206.63
2017-11-25T20:50:13.055Z,99209.48
2017-11-25T20:52:41.341Z,99208.73
2017-11-25T20:55:09.574Z,99214.69
2017-11-25T20:57:37.881Z,99214.22
2017-11-25T21:00:06.171Z,99219.19
2017-11-25T21:02:34.475Z,99220.10
2017-11-25T21:05:02.731Z,99221.63
2017-11-25T21:07:31.039Z,99228.52
2017-11-25T21:09:59.383Z,99230.98
2017-11-25T21:12:27.687Z,99229.09
2017-11-25T21:14:55.974Z,99229.56
2017-11-25T21:17:24.257Z,99230.94
2017-11-25T21:19:52.622Z,99234.41
2017-11-25T21:22:20.872Z,99245.05
2017-11-25T21:24:49.145Z,99244.32
2017-11-25T21:27:17.453Z,99247.84
2017-11-25T21:29:45.713Z,99240.31
2017-11-25T21:32:14.028Z,99254.09
2017-11-25T21:34:42.357Z,99254.64
2017-11-25T21:37:10.657Z,99255.24
2017-11-25T21:39:38.933Z,99257.62
2017-11-25T21:42:07.236Z,99253.33
2017-11-25T21:44:35.650Z,99259.81
2017-11-25T21:47:04.867Z,99256.38
2017-11-25T21:49:33.115Z,99259.28
2017-11-25T21:52:01.425Z,99256.95
2017-11-25T21:54:29.688Z,99259.03
2017-11-25T21:56:57.991Z,99268.01
2017-11-25T21:59:26.356Z,99271.94
2017-11-25T22:01:54.616Z,99274.86
2017-11-25T22:04:22.905Z,99280.42
2017-11-25T22:06:51.214Z,99264.64
2017-11-25T22:09:19.491Z,99283.57
2017-11-25T22:11:47.781Z,99281.00
2017-11-25T22:14:16.100Z,99280.42
2017-11-25T22:16:44.552Z,99288.63
2017-11-25T22:19:12.846Z,99291.93
2017-11-25T22:21:41.093Z,99300.66
2017-11-25T22:24:10.027Z,99304.67
2017-11-25T22:26:38.331Z,99308.13
2017-11-25T22:29:06.633Z,99312.91
2017-11-25T22:31:35.316Z,99313.19
2017-11-25T22:34:03.565Z,99317.28
2017-11-25T22:36:31.888Z,99321.03
2017-11-25T22:39:00.142Z,99319.12
2017-11-25T22:41:28.480Z,99308.59
2017-11-25T22:43:56.741Z,99315.61
2017-11-25T22:46:25.036Z,99317.67
2017-11-25T22:48:53.326Z,99293.14
2017-11-25T22:51:21.591Z,99313.44
2017-11-25T22:53:49.957Z,99323.53
2017-11-25T22:56:18.252Z,99317.47
2017-11-25T22:58:46.527Z,99319.05
2017-11-25T23:01:14.786Z,99307.20
2017-11-25T23:03:43.110Z,99331.06
2017-11-25T23:06:11.504Z,99333.05
2017-11-25T23:08:39.769Z,99324.55
2017-11-25T23:11:08.030Z,99323.02
2017-11-25T23:13:36.361Z,99332.28
2017-11-25T23:16:05.258Z,99337.87
2017-11-25T23:18:33.523Z,99340.77
2017-11-25T23:21:02.079Z,99337.48
2017-11-25T23:23:30.288Z,99331.52
2017-11-25T23:25:58.640Z,99338.64
2017-11-25T23:28:26.895Z,99340.53
2017-11-25T23:30:55.217Z,99345.33
2017-11-25T23:33:23.663Z,99340.41
2017-11-25T23:35:51.948Z,99335.50
2017-11-25T23:38:20.245Z,99345.48
2017-11-25T23:40:48.505Z,99353.16
2017-11-25T23:43:16.806Z,99367.05
2017-11-25T23:45:45.069Z,99368.42
2017-11-25T23:48:13.355Z,99371.09
2017-11-25T23:50:42.422Z,99358.03
2017-11-25T23:53:10.698Z,99373.66
2017-11-25T23:55:39.083Z,99373.33
2017-11-25T23:58:07.454Z,99375.77
